createdAt,value
2022-11-04T04:02:40.100Z,10.61
2022-11-04T04:03:40.624Z,10.44
2022-11-04T04:04:40.088Z,10.67
2022-11-04T04:05:42.718Z,10.67
2022-11-04T04:06:41.342Z,10.63
2022-11-04T04:07:42.135Z,10.57
2022-11-04T04:08:42.209Z,10.67
2022-11-04T04:09:42.221Z,10.56
2022-11-04T04:10:41.153Z,10.60
2022-11-04T04:11:42.246Z,10.56
2022-11-04T04:12:41.165Z,10.59
2022-11-04T04:13:41.132Z,10.53
2022-11-04T04:14:41.133Z,10.63
2022-11-04T04:15:41.125Z,10.57
2022-11-04T04:16:41.112Z,10.60
2022-11-04T04:17:41.113Z,10.48
2022-11-04T04:18:41.715Z,10.53
2022-11-04T04:19:41.989Z,10.48
2022-11-04T04:20:41.122Z,10.40
2022-11-04T04:21:41.065Z,10.54
2022-11-04T04:22:41.080Z,10.46
2022-11-04T04:23:41.572Z,10.48
2022-11-04T04:24:41.168Z,10.42
2022-11-04T04:25:41.055Z,10.37
2022-11-04T04:26:41.138Z,10.44
2022-11-04T04:27:41.022Z,10.35
2022-11-04T04:28:41.069Z,10.38
2022-11-04T04:29:41.005Z,10.35
2022-11-04T04:30:41.783Z,10.26
2022-11-04T04:31:41.010Z,10.20
2022-11-04T04:32:40.993Z,10.30
2022-11-04T04:33:40.981Z,10.26
2022-11-04T04:34:40.992Z,10.25
2022-11-04T04:35:41.035Z,10.23
2022-11-04T04:36:41.087Z,10.17
2022-11-04T04:37:40.960Z,10.19
2022-11-04T04:38:40.976Z,10.16
2022-11-04T04:39:41.750Z,10.25
2022-11-04T04:40:41.617Z,10.12
2022-11-04T04:41:42.227Z,10.20
2022-11-04T04:42:40.914Z,10.19
2022-11-04T04:43:40.911Z,10.17
2022-11-04T04:44:40.889Z,10.16
2022-11-04T04:45:41.911Z,10.15
2022-11-04T04:46:41.028Z,10.22
2022-11-04T04:47:40.878Z,10.25
2022-11-04T04:48:41.579Z,10.19
2022-11-04T04:49:40.885Z,10.17
2022-11-04T04:50:41.710Z,10.25
2022-11-04T04:51:40.848Z,10.20
2022-11-04T04:52:40.853Z,10.17
2022-11-04T04:53:40.865Z,10.31
2022-11-04T04:54:40.846Z,10.31
2022-11-04T04:55:41.951Z,10.26
2022-11-04T04:56:40.815Z,10.17
2022-11-04T04:57:40.854Z,10.25
2022-11-04T04:58:40.827Z,10.22
2022-11-04T04:59:40.802Z,10.26
2022-11-04T05:00:40.766Z,10.28
2022-11-04T05:01:41.047Z,10.30
2022-11-04T05:02:40.831Z,10.40
2022-11-04T05:03:44.965Z,10.34
2022-11-04T05:04:41.786Z,10.28
2022-11-04T05:05:40.740Z,10.28
2022-11-04T05:06:40.885Z,10.26
2022-11-04T05:07:40.759Z,10.10
2022-11-04T05:08:40.714Z,10.15
2022-11-04T05:09:40.730Z,10.10
2022-11-04T05:10:40.704Z,10.13
2022-11-04T05:11:40.685Z,10.04
2022-11-04T05:12:40.682Z,9.97
2022-11-04T05:13:40.731Z,9.95
2022-11-04T05:14:40.682Z,9.98
2022-11-04T05:15:40.653Z,9.92
2022-11-04T05:16:41.112Z,9.80
2022-11-04T05:17:41.705Z,9.84
2022-11-04T05:18:40.691Z,9.86
2022-11-04T05:19:40.696Z,9.80
2022-11-04T05:20:41.268Z,9.80
2022-11-04T05:21:40.716Z,9.86
2022-11-04T05:22:40.663Z,9.94
2022-11-04T05:23:41.092Z,9.84
2022-11-04T05:24:40.654Z,9.79
2022-11-04T05:25:40.688Z,9.89
2022-11-04T05:26:40.672Z,9.80
2022-11-04T05:27:40.561Z,9.82
2022-11-04T05:28:40.561Z,9.84
2022-11-04T05:29:40.553Z,9.83
2022-11-04T05:30:40.560Z,9.79
2022-11-04T05:31:41.405Z,9.76
2022-11-04T05:32:40.553Z,9.69
2022-11-04T05:33:40.528Z,9.68
2022-11-04T05:34:40.522Z,9.66
2022-11-04T05:35:40.499Z,9.66
2022-11-04T05:36:42.500Z,9.76
2022-11-04T05:37:40.503Z,9.80
2022-11-04T05:38:40.661Z,9.82
2022-11-04T05:39:40.493Z,9.83
2022-11-04T05:40:40.534Z,9.80
2022-11-04T05:41:40.509Z,9.83
2022-11-04T05:42:41.278Z,9.76
2022-11-04T05:43:41.260Z,9.80
2022-11-04T05:44:42.307Z,9.91
2022-11-04T05:45:40.440Z,9.95
2022-11-04T05:46:40.433Z,9.87
2022-11-04T05:47:40.438Z,9.89
2022-11-04T05:48:40.850Z,9.77
2022-11-04T05:49:41.392Z,9.84
2022-11-04T05:50:41.096Z,9.76
2022-11-04T05:51:41.233Z,9.72
2022-11-04T05:52:40.409Z,9.59
2022-11-04T05:53:40.547Z,9.59
2022-11-04T05:54:41.263Z,9.50
2022-11-04T05:55:41.270Z,9.46
2022-11-04T05:56:40.342Z,9.39
2022-11-04T05:57:40.361Z,9.36
2022-11-04T05:58:40.425Z,9.31
2022-11-04T05:59:40.345Z,9.25
2022-11-04T06:00:40.340Z,9.23
2022-11-04T06:01:40.404Z,9.14
2022-11-04T06:02:40.376Z,9.29
2022-11-04T06:03:40.297Z,9.21
2022-11-04T06:04:40.305Z,9.19
2022-11-04T06:05:40.326Z,9.22
2022-11-04T06:06:40.290Z,9.21
2022-11-04T06:07:40.278Z,9.18
2022-11-04T06:08:44.999Z,9.03
2022-11-04T06:09:42.276Z,9.13
2022-11-04T06:10:40.284Z,9.11
2022-11-04T06:11:40.258Z,9.06
2022-11-04T06:12:40.336Z,9.00
2022-11-04T06:13:40.252Z,9.14
2022-11-04T06:14:40.231Z,9.10
2022-11-04T06:15:40.262Z,9.08
2022-11-04T06:16:40.189Z,9.08
2022-11-04T06:17:40.189Z,9.04
2022-11-04T06:18:40.184Z,9.00
2022-11-04T06:19:40.205Z,8.95
2022-11-04T06:20:40.202Z,8.92
2022-11-04T06:21:40.167Z,8.85
2022-11-04T06:22:40.199Z,8.97
2022-11-04T06:23:40.164Z,8.82
2022-11-04T06:24:40.200Z,8.88
2022-11-04T06:25:40.161Z,8.79
2022-11-04T06:26:40.285Z,8.91
2022-11-04T06:27:40.757Z,8.89
2022-11-04T06:28:40.135Z,8.94
2022-11-04T06:29:40.322Z,8.91
2022-11-04T06:30:40.130Z,8.84
2022-11-04T06:31:40.246Z,8.84
2022-11-04T06:32:40.090Z,8.88
2022-11-04T06:33:40.110Z,8.97
2022-11-04T06:34:40.134Z,8.87
2022-11-04T06:35:40.054Z,8.92
2022-11-04T06:36:40.035Z,8.84
2022-11-04T06:37:41.257Z,8.70
2022-11-04T06:38:40.106Z,8.82
2022-11-04T06:39:40.048Z,8.81
2022-11-04T06:40:40.071Z,8.82
2022-11-04T06:41:42.841Z,8.97
2022-11-04T06:42:40.142Z,8.82
2022-11-04T06:43:40.015Z,8.78
2022-11-04T06:44:41.306Z,8.85
2022-11-04T06:45:40.618Z,8.84
2022-11-04T06:46:39.981Z,8.89
2022-11-04T06:47:39.997Z,8.82
2022-11-04T06:48:40.026Z,8.79
2022-11-04T06:49:39.957Z,8.73
2022-11-04T06:50:40.767Z,8.89
2022-11-04T06:51:39.937Z,8.84
2022-11-04T06:52:42.529Z,8.82
2022-11-04T06:53:40.922Z,8.88
2022-11-04T06:54:39.963Z,8.85
2022-11-04T06:55:39.977Z,8.81
2022-11-04T06:56:39.911Z,8.78
2022-11-04T06:57:39.925Z,8.70
2022-11-04T06:58:39.934Z,8.66
2022-11-04T06:59:39.930Z,8.70
2022-11-04T07:00:39.949Z,8.64
2022-11-04T07:01:40.015Z,8.63
2022-11-04T07:02:40.915Z,8.67
2022-11-04T07:03:39.852Z,8.55
2022-11-04T07:04:39.940Z,8.67
2022-11-04T07:05:39.910Z,8.61
2022-11-04T07:06:42.808Z,8.64
2022-11-04T07:07:39.820Z,8.66
2022-11-04T07:08:39.834Z,8.63
2022-11-04T07:09:39.808Z,8.66
2022-11-04T07:10:39.786Z,8.60
2022-11-04T07:11:39.792Z,8.61
2022-11-04T07:12:39.787Z,8.60
2022-11-04T07:13:39.780Z,8.70
2022-11-04T07:14:39.758Z,8.55
2022-11-04T07:15:39.750Z,8.56
2022-11-04T07:16:39.768Z,8.66
2022-11-04T07:17:39.750Z,8.55
2022-11-04T07:18:39.732Z,8.60
2022-11-04T07:19:39.717Z,8.58
2022-11-04T07:20:39.873Z,8.58
2022-11-04T07:21:39.728Z,8.66
2022-11-04T07:23:11.610Z,8.60
2022-11-04T07:24:11.632Z,8.56
2022-11-04T07:25:11.597Z,8.51
2022-11-04T07:25:39.668Z,8.46
2022-11-04T07:26:39.677Z,8.53
2022-11-04T07:27:39.643Z,8.58
2022-11-04T07:28:39.629Z,8.58
2022-11-04T07:29:39.684Z,8.55
2022-11-04T07:30:39.697Z,8.55
2022-11-04T07:31:39.614Z,8.67
2022-11-04T07:32:39.594Z,8.60
2022-11-04T07:33:39.626Z,8.63
2022-11-04T07:34:39.600Z,8.66
2022-11-04T07:35:39.663Z,8.61
2022-11-04T07:36:39.603Z,8.69
2022-11-04T07:37:40.404Z,8.58
2022-11-04T07:38:39.559Z,8.73
2022-11-04T07:39:39.552Z,8.71
2022-11-04T07:40:39.552Z,8.76
2022-11-04T07:41:39.581Z,8.79
2022-11-04T07:42:39.559Z,8.84
2022-11-04T07:43:40.257Z,8.87
2022-11-04T07:44:39.556Z,8.88
2022-11-04T07:45:39.509Z,8.97
2022-11-04T07:46:39.539Z,8.99
2022-11-04T07:47:39.565Z,8.89
2022-11-04T07:48:39.586Z,8.92
2022-11-04T07:49:39.573Z,8.91
2022-11-04T07:50:40.804Z,8.99
2022-11-04T07:51:40.304Z,8.99
2022-11-04T07:52:39.474Z,8.95
2022-11-04T07:53:41.887Z,9.02
2022-11-04T07:54:40.357Z,9.04
2022-11-04T07:55:43.346Z,9.13
2022-11-04T07:56:40.529Z,9.11
2022-11-04T07:57:39.439Z,9.16
2022-11-04T07:58:39.428Z,9.28
2022-11-04T07:59:39.459Z,9.26
2022-11-04T08:00:39.443Z,9.28
2022-11-04T08:01:39.435Z,9.28
2022-11-04T08:02:39.488Z,9.40
2022-11-04T08:03:39.420Z,9.36
2022-11-04T08:04:39.370Z,9.37
2022-11-04T08:05:39.366Z,9.37
2022-11-04T08:06:39.344Z,9.46
2022-11-04T08:07:39.404Z,9.54
2022-11-04T08:08:39.356Z,9.44
2022-11-04T08:09:39.324Z,9.44
2022-11-04T08:10:39.375Z,9.47
2022-11-04T08:11:39.335Z,9.50
2022-11-04T08:12:39.389Z,9.51
2022-11-04T08:13:39.302Z,9.47
2022-11-04T08:14:39.323Z,9.66
2022-11-04T08:15:39.288Z,9.62
2022-11-04T08:16:39.325Z,9.56
2022-11-04T08:17:39.260Z,9.61
2022-11-04T08:18:39.276Z,9.66
2022-11-04T08:19:39.299Z,9.64
2022-11-04T08:20:39.951Z,9.65
2022-11-04T08:21:39.358Z,9.73
2022-11-04T08:22:39.228Z,9.73
2022-11-04T08:23:39.224Z,9.79
2022-11-04T08:24:40.583Z,9.77
2022-11-04T08:25:39.879Z,9.77
2022-11-04T08:26:39.205Z,9.82
2022-11-04T08:27:41.913Z,9.97
2022-11-04T08:28:39.224Z,9.99
2022-11-04T08:29:39.241Z,10.02
2022-11-04T08:30:39.194Z,10.12
2022-11-04T08:31:39.215Z,10.10
2022-11-04T08:32:39.824Z,10.15
2022-11-04T08:33:39.828Z,10.15
2022-11-04T08:34:39.172Z,10.28
2022-11-04T08:35:41.160Z,10.30
2022-11-04T08:36:40.118Z,10.31
2022-11-04T08:37:40.149Z,10.35
2022-11-04T08:38:39.128Z,10.35
2022-11-04T08:39:39.111Z,10.44
2022-11-04T08:40:39.127Z,10.48
2022-11-04T08:41:39.100Z,10.54
2022-11-04T08:42:39.146Z,10.68
2022-11-04T08:43:39.119Z,10.63
2022-11-04T08:44:39.338Z,10.69
2022-11-04T08:45:39.206Z,10.81
2022-11-04T08:46:39.125Z,10.82
2022-11-04T08:47:39.886Z,10.90
2022-11-04T08:48:39.083Z,10.97
2022-11-04T08:49:39.044Z,11.04
2022-11-04T08:50:39.908Z,11.15
2022-11-04T08:51:39.085Z,11.37
2022-11-04T08:52:39.098Z,11.54
2022-11-04T08:53:40.127Z,11.68
2022-11-04T08:54:39.006Z,11.90
2022-11-04T08:55:39.026Z,12.04
2022-11-04T08:56:39.820Z,12.02
2022-11-04T08:57:39.200Z,12.09
2022-11-04T08:58:38.982Z,12.03
2022-11-04T08:59:39.911Z,12.10
2022-11-04T09:00:38.998Z,12.15
2022-11-04T09:01:39.061Z,12.28
2022-11-04T09:02:39.112Z,12.40
2022-11-04T09:03:39.029Z,12.35
2022-11-04T09:04:38.938Z,12.40
2022-11-04T09:05:38.908Z,12.43
2022-11-04T09:06:38.975Z,12.04
2022-11-04T09:07:39.031Z,11.94
2022-11-04T09:08:38.880Z,11.83
2022-11-04T09:09:38.906Z,11.62
2022-11-04T09:10:39.413Z,11.69
2022-11-04T09:11:38.862Z,11.87
2022-11-04T09:12:38.935Z,12.07
2022-11-04T09:13:39.845Z,12.32
2022-11-04T09:14:39.943Z,12.22
2022-11-04T09:15:38.862Z,12.31
2022-11-04T09:16:40.156Z,12.36
2022-11-04T09:17:38.820Z,12.57
2022-11-04T09:19:10.749Z,13.00
2022-11-04T09:19:38.878Z,13.39
2022-11-04T09:20:38.839Z,13.78
2022-11-04T09:21:38.795Z,14.28
2022-11-04T09:22:43.103Z,14.70
2022-11-04T09:23:40.779Z,14.96
2022-11-04T09:24:38.778Z,15.35
2022-11-04T09:25:38.772Z,15.29
2022-11-04T09:26:38.767Z,15.29
2022-11-04T09:27:38.765Z,14.82
2022-11-04T09:28:38.748Z,14.60
2022-11-04T09:29:38.719Z,14.51
2022-11-04T09:30:39.334Z,14.37
2022-11-04T09:31:38.722Z,13.97
2022-11-04T09:32:38.720Z,14.12
2022-11-04T09:33:38.701Z,14.07
2022-11-04T09:34:38.700Z,13.99
2022-11-04T09:35:38.708Z,13.83
2022-11-04T09:36:38.687Z,13.87
2022-11-04T09:37:38.652Z,13.83
2022-11-04T09:38:38.862Z,13.71
2022-11-04T09:39:38.633Z,13.50
2022-11-04T09:40:38.656Z,13.46
2022-11-04T09:41:38.691Z,13.31
2022-11-04T09:42:38.622Z,13.05
2022-11-04T09:43:38.612Z,12.85
2022-11-04T09:44:53.631Z,12.67
2022-11-04T09:45:40.615Z,12.65
2022-11-04T09:46:39.060Z,12.46
2022-11-04T09:47:38.585Z,12.36
2022-11-04T09:48:38.616Z,12.24
2022-11-04T09:49:38.576Z,12.28
2022-11-04T09:50:38.588Z,12.22
2022-11-04T09:51:55.621Z,12.13
2022-11-04T09:52:40.573Z,12.15
2022-11-04T09:53:38.556Z,12.42
2022-11-04T09:54:40.832Z,12.57
2022-11-04T09:55:39.513Z,12.79
2022-11-04T09:56:38.515Z,13.01
2022-11-04T09:57:38.559Z,13.23
2022-11-04T09:58:38.494Z,13.20
2022-11-04T09:59:38.489Z,13.11
2022-11-04T10:00:38.505Z,13.08
2022-11-04T10:01:38.552Z,13.00
2022-11-04T10:02:39.483Z,12.98
2022-11-04T10:03:38.464Z,12.98
2022-11-04T10:04:38.497Z,13.04
2022-11-04T10:05:38.476Z,13.01
2022-11-04T10:06:38.457Z,12.97
2022-11-04T10:07:38.525Z,13.08
2022-11-04T10:08:38.449Z,13.27
2022-11-04T10:09:38.405Z,13.37
2022-11-04T10:10:38.522Z,13.65
2022-11-04T10:11:38.399Z,13.81
2022-11-04T10:12:38.440Z,13.81
2022-11-04T10:13:38.438Z,13.85
2022-11-04T10:14:38.387Z,13.81
2022-11-04T10:15:38.388Z,13.92
2022-11-04T10:16:38.366Z,14.07
2022-11-04T10:17:38.365Z,14.08
2022-11-04T10:18:38.341Z,14.35
2022-11-04T10:19:38.360Z,14.45
2022-11-04T10:20:43.492Z,14.51
2022-11-04T10:21:40.310Z,14.47
2022-11-04T10:22:38.317Z,14.54
2022-11-04T10:23:38.308Z,14.55
2022-11-04T10:24:38.320Z,14.53
2022-11-04T10:25:38.311Z,14.44
2022-11-04T10:26:38.387Z,14.51
2022-11-04T10:27:38.283Z,14.36
2022-11-04T10:28:38.299Z,14.28
2022-11-04T10:29:38.287Z,14.15
2022-11-04T10:30:38.277Z,14.29
2022-11-04T10:31:38.237Z,14.30
2022-11-04T10:32:38.240Z,14.37
2022-11-04T10:33:38.227Z,14.48
2022-11-04T10:34:38.283Z,14.47
2022-11-04T10:35:38.214Z,14.58
2022-11-04T10:36:38.195Z,14.58
2022-11-04T10:37:38.190Z,14.55
2022-11-04T10:38:38.194Z,14.44
2022-11-04T10:39:38.201Z,14.44
2022-11-04T10:40:38.200Z,14.37
2022-11-04T10:41:38.182Z,14.55
2022-11-04T10:42:38.370Z,14.55
2022-11-04T10:43:38.161Z,14.45
2022-11-04T10:44:38.135Z,14.48
2022-11-04T10:45:38.155Z,14.35
2022-11-04T10:46:38.791Z,14.20
2022-11-04T10:47:39.110Z,14.26
2022-11-04T10:48:38.136Z,14.33
2022-11-04T10:49:38.099Z,14.33
2022-11-04T10:50:38.090Z,14.51
2022-11-04T10:51:38.102Z,14.68
2022-11-04T10:52:38.786Z,14.94
2022-11-04T10:53:38.090Z,15.22
2022-11-04T10:54:38.085Z,15.33
2022-11-04T10:55:39.011Z,15.35
2022-11-04T10:56:38.196Z,15.52
2022-11-04T10:57:38.102Z,15.25
2022-11-04T10:58:38.042Z,15.03
2022-11-04T10:59:38.101Z,14.55
2022-11-04T11:00:38.150Z,14.11
2022-11-04T11:01:38.377Z,14.15
2022-11-04T11:02:38.001Z,14.32
2022-11-04T11:03:38.029Z,14.78
2022-11-04T11:04:37.972Z,15.00
2022-11-04T11:05:37.994Z,15.06
2022-11-04T11:06:37.972Z,14.92
2022-11-04T11:07:37.988Z,15.03
2022-11-04T11:08:37.983Z,15.24
2022-11-04T11:09:37.977Z,15.25
2022-11-04T11:10:37.956Z,15.29
2022-11-04T11:11:37.942Z,15.27
2022-11-04T11:12:50.940Z,15.27
2022-11-04T11:13:39.940Z,14.91
2022-11-04T11:14:37.930Z,14.62
2022-11-04T11:15:37.891Z,14.73
2022-11-04T11:16:37.905Z,14.79
2022-11-04T11:17:37.886Z,14.85
2022-11-04T11:18:37.887Z,14.73
2022-11-04T11:19:37.874Z,14.79
2022-11-04T11:20:38.025Z,14.81
2022-11-04T11:21:37.870Z,14.72
2022-11-04T11:22:37.888Z,14.44
2022-11-04T11:23:37.857Z,14.36
2022-11-04T11:24:37.832Z,14.26
2022-11-04T11:25:37.852Z,14.12
2022-11-04T11:26:37.877Z,14.30
2022-11-04T11:27:37.823Z,14.40
2022-11-04T11:28:37.842Z,14.58
2022-11-04T11:29:37.807Z,14.54
2022-11-04T11:30:37.799Z,14.51
2022-11-04T11:31:37.795Z,14.66
2022-11-04T11:32:37.773Z,14.51
2022-11-04T11:33:37.839Z,14.30
2022-11-04T11:34:37.771Z,14.58
2022-11-04T11:35:37.805Z,14.47
2022-11-04T11:36:37.758Z,14.60
2022-11-04T11:37:37.770Z,14.60
2022-11-04T11:38:37.774Z,14.78
2022-11-04T11:39:37.755Z,14.68
2022-11-04T11:40:43.838Z,14.54
2022-11-04T11:41:43.954Z,14.47
2022-11-04T11:42:39.756Z,14.41
2022-11-04T11:43:37.710Z,14.33
2022-11-04T11:44:37.682Z,14.30
2022-11-04T11:45:37.671Z,14.35
2022-11-04T11:46:37.695Z,14.29
2022-11-04T11:47:37.726Z,14.17
2022-11-04T11:48:37.690Z,14.08
2022-11-04T11:49:37.668Z,14.10
2022-11-04T11:50:37.707Z,13.85
2022-11-04T11:51:37.628Z,13.95
2022-11-04T11:52:37.609Z,13.87
2022-11-04T11:53:37.614Z,13.95
2022-11-04T11:54:37.622Z,13.92
2022-11-04T11:55:37.610Z,14.08
2022-11-04T11:56:59.299Z,14.17
2022-11-04T11:57:39.932Z,14.22
2022-11-04T12:00:41.073Z,14.63
2022-11-04T12:01:37.730Z,14.86
2022-11-04T12:02:37.643Z,14.70
2022-11-04T12:09:39.487Z,14.60
2022-11-04T12:10:50.275Z,14.84
2022-11-04T12:11:39.494Z,14.92
2022-11-04T12:12:38.400Z,14.99
2022-11-04T12:13:37.466Z,14.89
2022-11-04T12:14:37.484Z,14.70
2022-11-04T12:15:37.447Z,14.79
2022-11-04T12:16:37.447Z,14.84
2022-11-04T12:17:38.492Z,14.94
2022-11-04T12:18:37.428Z,14.86
2022-11-04T12:19:37.454Z,14.92
2022-11-04T12:20:37.461Z,14.65
2022-11-04T12:21:37.405Z,14.59
2022-11-04T12:22:37.417Z,14.53
2022-11-04T12:23:37.397Z,14.43
2022-11-04T12:24:37.409Z,14.47
2022-11-04T12:25:37.437Z,14.55
2022-11-04T12:26:37.365Z,14.60
2022-11-04T12:27:37.389Z,14.58
2022-11-04T12:28:37.352Z,14.55
2022-11-04T12:29:37.362Z,14.66
2022-11-04T12:30:38.685Z,14.72
2022-11-04T12:31:38.401Z,14.65
2022-11-04T12:32:37.325Z,14.68
2022-11-04T12:33:37.351Z,14.54
2022-11-04T12:34:37.314Z,14.45
2022-11-04T12:35:37.330Z,14.26
2022-11-04T12:36:42.633Z,14.17
2022-11-04T12:37:39.299Z,14.04
2022-11-04T12:38:37.283Z,14.07
2022-11-04T12:39:37.272Z,13.99
2022-11-04T12:40:37.271Z,14.05
2022-11-04T12:42:06.371Z,14.08
2022-11-04T12:42:39.254Z,14.18
2022-11-04T12:43:37.232Z,14.18
2022-11-04T12:44:38.254Z,14.17
2022-11-04T12:45:37.220Z,14.17
2022-11-04T12:46:37.200Z,14.20
2022-11-04T12:47:37.960Z,14.26
2022-11-04T12:48:37.203Z,14.37
2022-11-04T12:49:37.185Z,14.50
2022-11-04T12:50:37.199Z,14.59
2022-11-04T12:51:37.181Z,14.53
2022-11-04T12:52:37.272Z,14.62
2022-11-04T12:53:37.227Z,14.73
2022-11-04T12:54:37.154Z,14.63
2022-11-04T12:55:43.355Z,14.60
2022-11-04T12:56:39.137Z,14.55
2022-11-04T12:57:37.226Z,14.40
2022-11-04T12:58:37.162Z,14.41
2022-11-04T12:59:37.109Z,14.48
2022-11-04T13:00:37.223Z,14.48
2022-11-04T13:01:37.197Z,14.54
2022-11-04T13:02:37.149Z,14.68
2022-11-04T13:03:37.093Z,14.59
2022-11-04T13:04:37.087Z,14.65
2022-11-04T13:05:37.126Z,14.66
2022-11-04T13:06:37.146Z,14.63
2022-11-04T13:07:37.046Z,14.65
2022-11-04T13:08:37.053Z,14.73
2022-11-04T13:09:37.043Z,14.77
2022-11-04T13:10:37.029Z,14.58
2022-11-04T13:11:37.024Z,14.51
2022-11-04T13:12:37.019Z,14.58
2022-11-04T13:13:37.024Z,14.55
2022-11-04T13:14:37.016Z,14.50
2022-11-04T13:15:37.046Z,14.47
2022-11-04T13:16:37.013Z,14.50
2022-11-04T13:17:36.993Z,14.44
2022-11-04T13:18:36.992Z,14.41
2022-11-04T13:19:36.955Z,14.44
2022-11-04T13:20:36.958Z,14.37
2022-11-04T13:21:36.935Z,14.50
2022-11-04T13:22:36.969Z,14.41
2022-11-04T13:23:36.988Z,14.35
2022-11-04T13:24:36.913Z,14.36
2022-11-04T13:25:36.983Z,14.48
2022-11-04T13:26:36.936Z,14.41
2022-11-04T13:27:37.511Z,14.32
2022-11-04T13:28:36.895Z,14.33
2022-11-04T13:29:36.974Z,14.36
2022-11-04T13:30:36.897Z,14.33
2022-11-04T13:31:36.924Z,14.33
2022-11-04T13:32:36.848Z,14.32
2022-11-04T13:33:36.846Z,14.32
2022-11-04T13:34:36.894Z,14.32
2022-11-04T13:35:36.894Z,14.22
2022-11-04T13:36:36.865Z,14.25
2022-11-04T13:37:36.803Z,14.15
2022-11-04T13:38:36.867Z,14.22
2022-11-04T13:39:36.801Z,14.18
2022-11-04T13:40:36.886Z,14.15
2022-11-04T13:41:36.877Z,14.11
2022-11-04T13:42:36.777Z,14.05
2022-11-04T13:43:36.788Z,14.03
2022-11-04T13:44:36.805Z,13.93
2022-11-04T13:45:37.789Z,13.93
2022-11-04T13:46:36.812Z,13.85
2022-11-04T13:47:36.841Z,13.85
2022-11-04T13:48:36.845Z,13.72
2022-11-04T13:49:36.724Z,13.65
2022-11-04T13:50:36.758Z,13.74
2022-11-04T13:51:36.728Z,13.57
2022-11-04T13:52:36.735Z,13.59
2022-11-04T13:53:36.729Z,13.47
2022-11-04T13:54:36.695Z,13.46
2022-11-04T13:55:36.767Z,13.44
2022-11-04T13:56:37.337Z,13.41
2022-11-04T13:57:36.692Z,13.41
2022-11-04T13:58:36.689Z,13.37
2022-11-04T13:59:36.741Z,13.20
2022-11-04T14:00:36.648Z,13.38
2022-11-04T14:01:36.725Z,13.19
2022-11-04T14:02:36.733Z,13.30
2022-11-04T14:03:36.628Z,13.27
2022-11-04T14:04:36.610Z,13.23
2022-11-04T14:05:36.609Z,13.22
2022-11-04T14:06:36.615Z,13.31
2022-11-04T14:07:36.593Z,13.20
2022-11-04T14:08:37.053Z,13.37
2022-11-04T14:09:36.598Z,13.25
2022-11-04T14:10:36.564Z,13.38
2022-11-04T14:11:38.927Z,13.30
2022-11-04T14:12:37.542Z,13.13
2022-11-04T14:13:36.557Z,13.22
2022-11-04T14:14:36.529Z,13.37
2022-11-04T14:15:36.528Z,13.19
2022-11-04T14:16:36.522Z,13.30
2022-11-04T14:17:36.518Z,13.15
2022-11-04T14:18:36.514Z,13.25
2022-11-04T14:19:36.512Z,13.28
2022-11-04T14:20:36.497Z,13.16
2022-11-04T14:21:36.485Z,13.20
2022-11-04T14:22:36.526Z,13.18
2022-11-04T14:23:36.470Z,13.11
2022-11-04T14:24:36.463Z,13.04
2022-11-04T14:25:36.498Z,13.09
2022-11-04T14:26:36.442Z,12.97
2022-11-04T14:27:36.434Z,13.00
2022-11-04T14:28:36.425Z,12.95
2022-11-04T14:29:36.409Z,13.00
2022-11-04T14:30:36.430Z,12.90
2022-11-04T14:31:36.469Z,12.90
2022-11-04T14:32:36.391Z,12.90
2022-11-04T14:33:36.382Z,12.85
2022-11-04T14:34:36.392Z,12.82
2022-11-04T14:35:36.442Z,12.83
2022-11-04T14:36:36.432Z,12.76
2022-11-04T14:37:36.361Z,12.82
2022-11-04T14:38:36.357Z,12.78
2022-11-04T14:39:36.352Z,12.64
2022-11-04T14:40:36.355Z,12.67
2022-11-04T14:41:36.335Z,12.62
2022-11-04T14:42:36.376Z,12.72
2022-11-04T14:43:36.306Z,12.67
2022-11-04T14:44:36.312Z,12.64
2022-11-04T14:45:36.423Z,12.54
2022-11-04T14:46:36.373Z,12.70
2022-11-04T14:47:36.394Z,12.61
2022-11-04T14:48:37.006Z,12.64
2022-11-04T14:49:36.272Z,12.57
2022-11-04T14:50:36.248Z,12.65
2022-11-04T14:51:36.273Z,12.75
2022-11-04T14:52:36.251Z,12.55
2022-11-04T14:53:36.227Z,12.62
2022-11-04T14:54:36.219Z,12.64
2022-11-04T14:55:36.237Z,12.58
2022-11-04T14:56:36.233Z,12.57
2022-11-04T14:57:36.209Z,12.60
2022-11-04T14:58:36.329Z,12.61
2022-11-04T14:59:36.216Z,12.57
2022-11-04T15:00:36.229Z,12.54
2022-11-04T15:01:36.273Z,12.54
2022-11-04T15:02:36.222Z,12.53
2022-11-04T15:04:10.061Z,12.54
2022-11-04T15:04:38.192Z,12.54
2022-11-04T15:05:36.183Z,12.60
2022-11-04T15:06:53.608Z,12.61
2022-11-04T15:07:38.118Z,12.55
2022-11-04T15:08:36.124Z,12.55
2022-11-04T15:09:36.115Z,12.67
2022-11-04T15:10:36.120Z,12.55
2022-11-04T15:11:36.082Z,12.60
2022-11-04T15:12:36.079Z,12.58
2022-11-04T15:13:36.088Z,12.57
2022-11-04T15:14:36.086Z,12.57
2022-11-04T15:15:36.109Z,12.53
2022-11-04T15:16:36.076Z,12.55
2022-11-04T15:17:36.849Z,12.55
2022-11-04T15:19:07.960Z,12.55
2022-11-04T15:19:36.077Z,12.54
2022-11-04T15:20:36.221Z,12.57
2022-11-04T15:21:36.022Z,12.47
2022-11-04T15:22:37.128Z,12.49
2022-11-04T15:23:36.009Z,12.53
2022-11-04T15:24:36.004Z,12.50
2022-11-04T15:25:35.989Z,12.40
2022-11-04T15:26:36.001Z,12.50
2022-11-04T15:27:35.995Z,12.49
2022-11-04T15:28:35.936Z,12.49
2022-11-04T15:29:35.941Z,12.40
2022-11-04T15:30:37.023Z,12.37
2022-11-04T15:31:35.966Z,12.32
2022-11-04T15:32:36.050Z,12.39
2022-11-04T15:33:35.918Z,12.29
2022-11-04T15:34:37.516Z,12.32
2022-11-04T15:35:35.902Z,12.15
2022-11-04T15:36:37.041Z,12.24
2022-11-04T15:37:35.892Z,12.21
2022-11-04T15:38:35.884Z,12.21
2022-11-04T15:39:36.379Z,12.17
2022-11-04T15:40:35.855Z,12.13
2022-11-04T15:41:38.604Z,12.13
2022-11-04T15:42:36.846Z,12.15
2022-11-04T15:43:35.853Z,12.15
2022-11-04T15:44:35.903Z,12.15
2022-11-04T15:45:35.852Z,12.06
2022-11-04T15:46:35.838Z,12.10
2022-11-04T15:47:35.844Z,12.06
2022-11-04T15:48:35.797Z,12.07
2022-11-04T15:49:35.821Z,12.06
2022-11-04T15:50:35.806Z,12.00
2022-11-04T15:51:35.788Z,11.95
2022-11-04T15:52:35.805Z,11.83
2022-11-04T15:53:35.767Z,11.88
2022-11-04T15:54:35.780Z,11.81
2022-11-04T15:55:35.744Z,11.86
2022-11-04T15:56:35.805Z,11.75
2022-11-04T15:57:35.758Z,11.73
2022-11-04T15:58:35.725Z,11.78
2022-11-04T15:59:35.721Z,11.70
2022-11-04T16:00:35.742Z,11.55
2022-11-04T16:01:38.509Z,11.57
2022-11-04T16:02:35.721Z,11.48
2022-11-04T16:03:36.495Z,11.62
2022-11-04T16:04:35.693Z,11.55
2022-11-04T16:05:35.676Z,11.50
2022-11-04T16:06:35.654Z,11.32
2022-11-04T16:07:35.679Z,11.41
2022-11-04T16:08:35.660Z,11.33
2022-11-04T16:09:35.649Z,11.29
2022-11-04T16:10:35.626Z,11.30
2022-11-04T16:11:36.590Z,11.26
2022-11-04T16:12:35.613Z,11.26
2022-11-04T16:13:35.622Z,11.23
2022-11-04T16:14:38.455Z,11.17
2022-11-04T16:15:35.673Z,11.14
2022-11-04T16:16:36.661Z,11.10
2022-11-04T16:17:35.578Z,11.04
2022-11-04T16:18:35.567Z,10.94
2022-11-04T16:19:35.624Z,10.93
2022-11-04T16:20:35.578Z,11.04
2022-11-04T16:21:35.538Z,10.93
2022-11-04T16:22:35.541Z,10.99
2022-11-04T16:23:35.548Z,11.02
2022-11-04T16:24:35.525Z,10.92
2022-11-04T16:25:36.481Z,10.94
2022-11-04T16:26:36.542Z,10.87
2022-11-04T16:27:36.074Z,10.94
2022-11-04T16:28:37.050Z,10.89
2022-11-04T16:29:35.486Z,10.75
2022-11-04T16:30:35.490Z,10.86
2022-11-04T16:31:36.533Z,10.84
2022-11-04T16:32:36.388Z,10.84
2022-11-04T16:33:35.443Z,10.81
2022-11-04T16:34:35.511Z,10.82
2022-11-04T16:35:36.427Z,10.75
2022-11-04T16:36:36.149Z,10.72
2022-11-04T16:37:36.456Z,10.75
2022-11-04T16:38:35.447Z,10.74
2022-11-04T16:39:35.428Z,10.72
2022-11-04T16:40:35.407Z,10.76
2022-11-04T16:41:35.396Z,10.71
2022-11-04T16:42:35.398Z,10.59
2022-11-04T16:43:35.385Z,10.64
2022-11-04T16:44:35.378Z,10.56
2022-11-04T16:45:35.373Z,10.63
2022-11-04T16:46:35.406Z,10.54
2022-11-04T16:47:38.016Z,10.49
2022-11-04T16:48:35.323Z,10.51
2022-11-04T16:49:35.333Z,10.48
2022-11-04T16:50:35.343Z,10.59
2022-11-04T16:51:35.358Z,10.53
2022-11-04T16:52:41.636Z,10.49
2022-11-04T16:53:37.326Z,10.46
2022-11-04T16:54:35.385Z,10.51
2022-11-04T16:55:37.389Z,10.46
2022-11-04T16:56:35.280Z,10.57
2022-11-04T16:57:36.048Z,10.48
2022-11-04T16:58:35.294Z,10.56
2022-11-04T16:59:35.285Z,10.42
2022-11-04T17:00:35.246Z,10.42
2022-11-04T17:01:35.353Z,10.49
2022-11-04T17:02:35.304Z,10.37
2022-11-04T17:03:35.224Z,10.31
2022-11-04T17:04:35.206Z,10.38
2022-11-04T17:05:35.355Z,10.34
2022-11-04T17:06:35.235Z,10.42
2022-11-04T17:07:52.127Z,10.30
2022-11-04T17:08:37.227Z,10.31
2022-11-04T17:09:35.183Z,10.17